Terminal Aerodrome Forecast
Issued by NWS Louisville, KY

Home | Current Version | Previous Version | Text Only | Print | Product List | Glossary On
Versions: 1 2 3 4 5 6 7 8 9 10 11 12 13 14 15 16 17 18 19 20 21
053
FTUS43 KLMK 291733
TAFSDF
TAF
KSDF 291733Z 2918/3024 07008KT P6SM BKN021
     FM291900 08010KT P6SM SCT026 SCT200
     FM300400 12006KT P6SM FEW040 BKN150
     FM301400 17012G20KT P6SM VCSH SCT040 BKN080=

USA.gov is the U.S. government's official web portal to all federal, state and local government web resources and services.